NCAR-RAP Real-Time Weather Data

Output produced by METARs form (17 December 2018  06:52 UTC)
found at http://weather.rap.ucar.edu/surface/
 
RORS 170600Z 36020KT 9000 FEW033 BKN040 20/11 Q1020
RORS 170500Z 36019KT 9999 FEW025 SCT035 BKN100 20/10 Q1020
RORS 170400Z 36018KT 9999 FEW030 SCT035 BKN090 20/09 Q1020
RORS 170300Z 01019KT 9999 FEW029 SCT040 BKN090 19/11 Q1021
RORS 170200Z 01019KT 9999 FEW030 SCT040 BKN080 20/11 Q1022
RORS 170100Z 36018KT 9999 FEW030 SCT040 BKN080 19/11 Q1022
RORS 170000Z 36019G29KT 9999 -SHRA SCT025 BKN060 18/12 Q1021
RORS 162300Z 36019KT 9999 -SHRA FEW023 SCT030 BKN060 17/14 Q1020
RORS 162200Z 35021KT 9999 -SHRA SCT022 BKN050 18/14 Q1019
RORS 161000Z 20006KT 170V230 9999 FEW022 BKN050 BKN080 23/18 Q1017
RORS 160900Z 20008KT 170V240 9999 FEW025 BKN080 23/18 Q1017
RORS 160800Z 21006KT 180V250 9999 FEW030 BKN080 23/18 Q1017
RORS 160700Z 21006KT 170V260 9999 SCT029 BKN080 23/18 Q1017
RORS 160600Z 19006KT 150V230 9999 FEW031 BKN080 24/18 Q1017
RORS 160500Z 17009KT 9999 FEW033 BKN080 24/17 Q1018
RORS 160400Z 18009KT 9999 FEW035 BKN080 25/17 Q1019
RORS 160300Z 15010KT 9999 FEW033 BKN080 24/16 Q1020
RORS 160200Z 11007KT 9999 FEW033 BKN050 25/17 Q1021
RORS 160100Z 11005KT 9999 FEW030 BKN048 23/17 Q1021
RORS 160000Z 11004KT 9999 FEW030 BKN050 22/17 Q1021
RORS 151000Z 08011KT 9999 FEW034 20/13 Q1022
RORS 150900Z 07011KT 9999 FEW034 21/14 Q1022
RORS 150800Z 08013KT 9999 FEW033 22/14 Q1022
RORS 150700Z 08014KT 9999 FEW033 22/14 Q1021
RORS 150600Z 08014KT 9999 SCT033 SCT045 24/15 Q1022
RORS 150500Z 07013KT 9999 SCT032 23/14 Q1022
RORS 150400Z 07014KT 9999 SCT033 23/14 Q1023
RORS 150300Z 06015KT 9999 SCT032 SCT040 23/15 Q1024
RORS 150200Z 07014KT 9999 SCT033 23/14 Q1025
RORS 150100Z 06016KT 9999 FEW030 BKN080 21/14 Q1026
RORS 150000Z 06018KT 9999 FEW031 BKN070 21/14 Q1025
RORS 142300Z 05018KT 9999 FEW029 BKN070 20/14 Q1025
RORS 142200Z 05017KT 9999 SCT030 BKN042 BKN070 20/14 Q1025